Time;durP1;ratioP1;P1;durP2;ratioP2;P2;SDS_P1;SDS_P2;PMS_P1;PMS_P2;Temp;Humidity;BMP_temperature;BMP_pressure;BME280_temperature;BME280_humidity;BME280_pressure;Samples;Min_cycle;Max_cycle;Signal;HPM_P1;HPM_P2
2022/03/28 00:00:38;;;;;;;1.85;1.75;;;20.50;43.20;;;;;;4984505;28;20053;-68
2022/03/28 00:03:05;;;;;;;2.92;1.88;;;20.50;43.20;;;;;;4983518;28;20041;-66
2022/03/28 00:05:33;;;;;;;2.60;1.70;;;20.50;43.20;;;;;;4999850;28;20034;-67
2022/03/28 00:07:59;;;;;;;2.13;1.75;;;20.50;43.20;;;;;;4982438;28;20029;-67
2022/03/28 00:10:25;;;;;;;3.47;2.00;;;20.50;43.20;;;;;;4973561;28;20257;-67
2022/03/28 00:12:51;;;;;;;2.25;1.60;;;20.50;43.20;;;;;;5001395;28;20414;-67
2022/03/28 00:15:17;;;;;;;2.13;1.88;;;20.50;43.10;;;;;;4983009;28;20044;-66
2022/03/28 00:17:43;;;;;;;2.33;1.70;;;20.50;43.20;;;;;;4989585;28;20514;-67
2022/03/28 00:20:11;;;;;;;2.22;1.65;;;20.50;43.20;;;;;;4999643;28;20057;-67
2022/03/28 00:22:37;;;;;;;1.77;1.67;;;20.50;43.20;;;;;;5000958;28;20042;-67
2022/03/28 00:25:03;;;;;;;1.77;1.27;;;20.50;43.10;;;;;;4982117;28;20045;-67
2022/03/28 00:27:29;;;;;;;1.77;1.40;;;20.40;43.10;;;;;;4983163;28;20052;-67
2022/03/28 00:29:54;;;;;;;1.80;1.60;;;20.50;43.10;;;;;;5001174;28;20524;-67
2022/03/28 00:32:20;;;;;;;1.50;1.40;;;20.40;43.20;;;;;;4986123;28;20057;-67
2022/03/28 00:34:45;;;;;;;2.05;1.23;;;20.40;43.10;;;;;;5001941;28;20045;-67
2022/03/28 00:37:11;;;;;;;1.30;1.20;;;20.40;43.10;;;;;;5004324;28;20046;-67
2022/03/28 00:39:37;;;;;;;1.63;1.10;;;20.40;43.10;;;;;;4993646;28;20050;-66
2022/03/28 00:42:02;;;;;;;1.40;1.27;;;20.40;43.10;;;;;;4987307;28;20053;-67
2022/03/28 00:44:32;;;;;;;1.67;1.00;;;20.40;43.00;;;;;;5003920;28;20129;-67
2022/03/28 00:46:58;;;;;;;1.38;1.27;;;20.40;43.00;;;;;;5004719;28;20375;-66
2022/03/28 00:49:23;;;;;;;1.10;1.00;;;20.40;43.00;;;;;;4984598;28;20041;-67
2022/03/28 00:51:50;;;;;;;1.45;1.05;;;20.40;43.00;;;;;;4987315;28;20049;-67
2022/03/28 00:54:15;;;;;;;1.25;1.10;;;20.40;43.10;;;;;;4985309;28;20192;-67
2022/03/28 00:56:42;;;;;;;1.58;1.23;;;20.40;43.00;;;;;;4986850;28;20620;-67
2022/03/28 00:59:08;;;;;;;2.20;1.10;;;20.40;43.00;;;;;;4985128;28;20056;-67
2022/03/28 01:01:34;;;;;;;1.35;1.25;;;20.40;43.00;;;;;;4986233;28;20092;-67
2022/03/28 01:04:00;;;;;;;1.40;1.00;;;20.40;43.00;;;;;;5004174;28;20440;-67
2022/03/28 01:06:25;;;;;;;1.48;1.35;;;20.40;42.90;;;;;;5001936;28;20453;-67
2022/03/28 01:08:52;;;;;;;1.40;0.90;;;20.40;43.00;;;;;;5005106;28;20687;-67
2022/03/28 01:11:18;;;;;;;2.05;1.05;;;20.40;43.00;;;;;;4986746;28;20080;-67
2022/03/28 01:13:45;;;;;;;1.20;1.00;;;20.40;43.00;;;;;;4990913;28;20042;-67
2022/03/28 01:16:10;;;;;;;1.15;0.82;;;20.30;43.00;;;;;;5001273;28;20053;-68
2022/03/28 01:18:36;;;;;;;1.05;0.95;;;20.40;43.00;;;;;;5003343;28;20038;-67
2022/03/28 01:21:03;;;;;;;1.17;0.85;;;20.30;42.90;;;;;;5002487;28;20103;-67
2022/03/28 01:23:30;;;;;;;1.60;1.13;;;20.30;42.90;;;;;;5003190;28;20492;-67
2022/03/28 01:25:56;;;;;;;0.90;0.90;;;20.30;42.90;;;;;;4985387;28;20057;-68
2022/03/28 01:28:27;;;;;;;0.98;0.70;;;20.30;42.90;;;;;;4986073;28;20490;-67
2022/03/28 01:30:54;;;;;;;0.93;0.90;;;20.30;42.90;;;;;;4985035;28;20072;-67
2022/03/28 01:33:20;;;;;;;0.90;0.77;;;20.30;42.90;;;;;;5003881;28;20057;-67
2022/03/28 01:35:45;;;;;;;1.23;0.88;;;20.30;42.90;;;;;;4990342;28;20050;-67
2022/03/28 01:38:13;;;;;;;0.82;0.80;;;20.30;42.90;;;;;;5000977;28;20140;-67
2022/03/28 01:40:44;;;;;;;1.20;0.88;;;20.30;42.90;;;;;;4985625;28;20068;-66
2022/03/28 01:43:11;;;;;;;1.00;0.88;;;20.30;42.90;;;;;;5004035;28;20065;-66
2022/03/28 01:45:36;;;;;;;0.85;0.77;;;20.30;43.10;;;;;;5001242;28;20098;-68
2022/03/28 01:48:02;;;;;;;0.80;0.77;;;20.30;42.80;;;;;;5002309;28;20426;-67
2022/03/28 01:50:28;;;;;;;0.70;0.70;;;20.30;43.60;;;;;;5002205;28;20096;-67
2022/03/28 01:52:54;;;;;;;0.80;0.80;;;20.30;42.80;;;;;;4985361;28;20568;-67
2022/03/28 01:55:19;;;;;;;0.80;0.80;;;20.30;42.80;;;;;;4985257;28;20032;-67
2022/03/28 01:57:45;;;;;;;0.90;0.80;;;20.30;42.80;;;;;;5003587;28;20033;-67
2022/03/28 02:00:16;;;;;;;0.77;0.77;;;20.20;42.70;;;;;;4999664;28;20073;-68
2022/03/28 02:02:44;;;;;;;0.60;0.60;;;20.30;42.80;;;;;;4999869;28;20045;-68
2022/03/28 02:05:12;;;;;;;0.77;0.70;;;20.30;42.80;;;;;;4981939;28;20141;-67
2022/03/28 02:07:43;;;;;;;0.75;0.63;;;20.30;42.80;;;;;;4982448;28;20124;-67
2022/03/28 02:10:10;;;;;;;0.80;0.80;;;20.30;42.80;;;;;;4979242;28;20076;-67
2022/03/28 02:12:36;;;;;;;0.75;0.65;;;20.20;42.70;;;;;;5002894;28;20633;-67
2022/03/28 02:15:03;;;;;;;0.60;0.60;;;20.20;42.60;;;;;;4983617;28;20072;-67
2022/03/28 02:17:28;;;;;;;0.60;0.60;;;20.20;42.70;;;;;;5001099;28;20080;-67
2022/03/28 02:19:54;;;;;;;0.60;0.57;;;20.20;42.70;;;;;;4998848;28;20133;-68
2022/03/28 02:22:19;;;;;;;0.60;0.60;;;20.20;42.60;;;;;;4984122;28;20822;-67
2022/03/28 02:24:45;;;;;;;0.85;0.82;;;20.20;42.60;;;;;;5002897;28;20467;-68
2022/03/28 02:27:10;;;;;;;0.75;0.60;;;20.20;42.50;;;;;;5002561;28;20747;-67
2022/03/28 02:29:36;;;;;;;0.50;0.50;;;20.20;42.50;;;;;;5004070;28;20050;-67
2022/03/28 02:32:02;;;;;;;0.60;0.60;;;20.20;42.50;;;;;;5002993;28;20104;-68
2022/03/28 02:34:28;;;;;;;0.70;0.70;;;20.20;42.50;;;;;;4984018;28;20284;-68
2022/03/28 02:36:54;;;;;;;0.60;0.60;;;20.20;42.50;;;;;;4999382;28;20042;-67
2022/03/28 02:39:19;;;;;;;0.60;0.60;;;20.20;42.60;;;;;;5010166;28;20038;-67
2022/03/28 02:41:45;;;;;;;0.50;0.50;;;20.20;42.50;;;;;;5002186;28;20041;-67
2022/03/28 02:44:11;;;;;;;0.75;0.75;;;20.20;42.60;;;;;;5016525;28;20060;-67
2022/03/28 02:46:36;;;;;;;0.77;0.75;;;20.20;42.50;;;;;;5016603;28;20045;-67
2022/03/28 02:49:03;;;;;;;0.77;0.70;;;20.20;42.50;;;;;;5002850;28;20041;-67
2022/03/28 02:51:29;;;;;;;0.60;0.60;;;20.20;42.50;;;;;;4992525;28;20681;-66
2022/03/28 02:53:54;;;;;;;0.65;0.65;;;20.20;42.50;;;;;;5002193;28;20068;-67
2022/03/28 02:56:20;;;;;;;0.52;0.52;;;20.20;42.50;;;;;;5017551;28;20045;-67
2022/03/28 02:58:46;;;;;;;0.57;0.57;;;20.20;42.50;;;;;;5002330;28;20068;-67
2022/03/28 03:01:11;;;;;;;0.68;0.60;;;20.10;42.40;;;;;;5010644;28;20432;-66
2022/03/28 03:03:37;;;;;;;0.85;0.80;;;20.10;42.40;;;;;;5017769;28;20627;-66
2022/03/28 03:06:02;;;;;;;0.68;0.68;;;20.10;42.40;;;;;;5002704;28;20045;-68
2022/03/28 03:08:28;;;;;;;0.52;0.50;;;20.20;42.40;;;;;;5016324;28;20053;-66
2022/03/28 03:10:54;;;;;;;0.63;0.60;;;20.10;42.30;;;;;;5001148;28;20060;-67
2022/03/28 03:13:20;;;;;;;0.70;0.70;;;20.10;42.30;;;;;;5001787;28;20397;-68
2022/03/28 03:15:46;;;;;;;0.70;0.70;;;20.10;42.30;;;;;;5007803;28;20121;-67
2022/03/28 03:18:11;;;;;;;0.60;0.60;;;20.10;42.20;;;;;;5017103;28;20050;-68
2022/03/28 03:20:37;;;;;;;0.70;0.60;;;20.10;42.30;;;;;;5002550;28;20045;-67
2022/03/28 03:23:03;;;;;;;0.60;0.60;;;20.10;42.30;;;;;;5000561;28;20727;-66
2022/03/28 03:25:28;;;;;;;0.50;0.50;;;20.10;42.20;;;;;;5001427;28;20042;-67
2022/03/28 03:27:54;;;;;;;0.60;0.60;;;20.10;42.20;;;;;;5000483;28;20037;-67
2022/03/28 03:30:20;;;;;;;0.50;0.50;;;20.10;42.20;;;;;;5000481;28;20738;-67
2022/03/28 03:32:46;;;;;;;0.57;0.57;;;20.10;42.20;;;;;;4999482;28;20037;-67
2022/03/28 03:35:11;;;;;;;0.70;0.70;;;20.00;42.20;;;;;;5017076;28;20370;-66
2022/03/28 03:37:38;;;;;;;0.60;0.50;;;20.00;42.20;;;;;;4998238;28;20054;-66
2022/03/28 03:40:06;;;;;;;0.70;0.70;;;20.00;42.20;;;;;;5015726;28;20051;-67
2022/03/28 03:42:31;;;;;;;0.60;0.60;;;20.00;42.20;;;;;;5001452;28;20076;-67
2022/03/28 03:44:58;;;;;;;0.70;0.70;;;20.00;42.20;;;;;;5000311;28;20073;-67
2022/03/28 03:47:24;;;;;;;0.70;0.70;;;20.00;42.20;;;;;;4991722;28;20041;-67
2022/03/28 03:49:49;;;;;;;0.70;0.60;;;20.00;42.10;;;;;;5001798;28;20049;-67
2022/03/28 03:52:15;;;;;;;0.70;0.70;;;20.00;42.20;;;;;;4998724;28;20141;-67
2022/03/28 03:54:40;;;;;;;0.47;0.47;;;20.00;42.10;;;;;;4999423;28;20050;-68
2022/03/28 03:57:06;;;;;;;0.70;0.70;;;20.00;42.10;;;;;;5002121;28;20061;-68
2022/03/28 03:59:32;;;;;;;0.70;0.70;;;20.00;42.10;;;;;;5001520;28;20040;-68
2022/03/28 04:01:58;;;;;;;0.85;0.65;;;20.00;42.10;;;;;;4995134;28;20044;-67
2022/03/28 04:04:23;;;;;;;0.60;0.60;;;20.00;42.10;;;;;;5015307;28;20045;-67
2022/03/28 04:06:49;;;;;;;0.80;0.80;;;20.00;42.10;;;;;;4997120;28;20048;-66
2022/03/28 04:09:14;;;;;;;0.60;0.60;;;20.00;42.10;;;;;;4998846;28;20046;-67
2022/03/28 04:11:40;;;;;;;0.90;0.90;;;20.00;42.20;;;;;;5016692;28;20080;-67
2022/03/28 04:14:06;;;;;;;1.05;1.00;;;20.00;42.10;;;;;;5006871;28;20057;-67
2022/03/28 04:16:31;;;;;;;0.73;0.70;;;20.00;42.10;;;;;;5016379;28;20398;-67
2022/03/28 04:18:57;;;;;;;0.63;0.63;;;20.00;42.20;;;;;;5000524;28;20220;-68
2022/03/28 04:21:22;;;;;;;0.90;0.90;;;20.00;42.20;;;;;;4995485;28;21012;-66
2022/03/28 04:23:48;;;;;;;1.02;0.98;;;20.00;42.20;;;;;;5015717;28;20553;-67
2022/03/28 04:26:14;;;;;;;0.88;0.80;;;20.00;42.20;;;;;;5000737;28;20041;-67
2022/03/28 04:28:39;;;;;;;0.88;0.88;;;20.00;42.20;;;;;;5016570;28;20452;-67
2022/03/28 04:31:05;;;;;;;0.80;0.80;;;20.00;42.20;;;;;;4998611;28;20045;-67
2022/03/28 04:33:30;;;;;;;0.80;0.80;;;20.00;42.20;;;;;;4999549;28;20041;-68
2022/03/28 04:35:56;;;;;;;0.82;0.82;;;19.90;42.10;;;;;;4999520;28;20049;-67
2022/03/28 04:38:24;;;;;;;1.00;1.00;;;20.00;42.10;;;;;;4998367;28;20062;-67
2022/03/28 04:40:50;;;;;;;0.90;0.90;;;20.00;42.10;;;;;;4991612;28;20457;-67
2022/03/28 04:43:16;;;;;;;1.00;0.90;;;19.90;42.10;;;;;;5015298;28;20049;-67
2022/03/28 04:45:41;;;;;;;1.30;1.20;;;19.90;42.10;;;;;;4999994;28;20048;-67
2022/03/28 04:48:07;;;;;;;1.20;1.10;;;19.90;42.10;;;;;;5000178;28;20038;-67
2022/03/28 04:50:33;;;;;;;1.10;1.00;;;19.90;42.10;;;;;;5001572;28;20053;-68
2022/03/28 04:52:58;;;;;;;0.85;0.85;;;19.90;42.10;;;;;;4999199;28;20034;-67
2022/03/28 04:55:24;;;;;;;0.93;0.93;;;19.90;42.10;;;;;;5000273;28;20398;-67
2022/03/28 04:57:50;;;;;;;1.00;0.90;;;19.90;42.10;;;;;;5001948;28;20390;-66
2022/03/28 05:00:16;;;;;;;1.15;1.05;;;19.90;42.10;;;;;;4999393;28;20089;-67
2022/03/28 05:02:42;;;;;;;0.88;0.88;;;19.90;42.10;;;;;;4999298;28;20336;-66
2022/03/28 05:05:08;;;;;;;1.25;1.15;;;19.90;42.10;;;;;;5001328;28;20038;-66
2022/03/28 05:07:35;;;;;;;1.05;0.98;;;19.90;42.10;;;;;;4999033;28;20045;-67
2022/03/28 05:10:01;;;;;;;1.85;1.17;;;19.90;42.10;;;;;;5015669;28;20057;-67
2022/03/28 05:12:27;;;;;;;1.20;1.13;;;19.90;42.10;;;;;;5015668;28;20049;-66
2022/03/28 05:14:54;;;;;;;1.20;1.10;;;19.90;42.10;;;;;;4999355;28;20049;-67
2022/03/28 05:17:25;;;;;;;1.10;1.10;;;19.90;42.10;;;;;;4990742;28;20052;-68
2022/03/28 05:19:52;;;;;;;1.70;1.23;;;19.90;42.10;;;;;;5019542;28;20417;-67
2022/03/28 05:22:19;;;;;;;1.10;1.00;;;19.90;42.20;;;;;;5018189;28;20413;-68
2022/03/28 05:24:44;;;;;;;1.30;1.20;;;20.00;42.20;;;;;;4997708;28;20149;-67
2022/03/28 05:27:10;;;;;;;1.13;1.02;;;20.00;42.20;;;;;;5004675;28;20116;-67
2022/03/28 05:29:36;;;;;;;1.38;1.27;;;20.00;42.30;;;;;;5018254;28;20053;-67
2022/03/28 05:32:03;;;;;;;1.35;1.25;;;20.00;42.20;;;;;;5019490;28;20441;-66
2022/03/28 05:34:30;;;;;;;1.48;1.25;;;20.00;42.20;;;;;;5002802;28;20053;-68
2022/03/28 05:37:00;;;;;;;1.50;1.40;;;20.00;42.30;;;;;;5002532;28;20124;-68
2022/03/28 05:39:26;;;;;;;1.38;1.27;;;20.00;42.30;;;;;;5002406;28;20050;-67
2022/03/28 05:41:52;;;;;;;2.17;1.45;;;20.00;42.20;;;;;;4993972;28;20045;-67
2022/03/28 05:44:19;;;;;;;1.20;1.10;;;20.00;42.20;;;;;;5002653;28;20501;-67
2022/03/28 05:46:45;;;;;;;1.30;1.20;;;20.00;42.40;;;;;;5019312;28;20046;-67
2022/03/28 05:49:10;;;;;;;1.65;1.55;;;20.00;42.30;;;;;;5004207;28;20096;-68
2022/03/28 05:51:36;;;;;;;1.20;1.10;;;20.10;42.30;;;;;;5001454;28;20136;-69
2022/03/28 05:54:02;;;;;;;0.90;0.90;;;20.00;42.30;;;;;;5002779;28;20120;-67
2022/03/28 05:56:27;;;;;;;1.27;1.17;;;20.10;42.30;;;;;;5001348;28;20048;-68
2022/03/28 05:58:53;;;;;;;1.20;1.05;;;20.10;42.30;;;;;;5004361;28;20038;-67
2022/03/28 06:01:18;;;;;;;1.20;1.10;;;20.10;42.30;;;;;;5002589;28;20050;-67
2022/03/28 06:03:44;;;;;;;1.85;1.48;;;20.10;42.30;;;;;;5003629;28;20533;-67
2022/03/28 06:06:09;;;;;;;1.33;1.23;;;20.10;42.50;;;;;;5019178;28;20524;-67
2022/03/28 06:08:35;;;;;;;1.50;1.40;;;20.10;42.30;;;;;;5002379;28;20542;-67
2022/03/28 06:11:03;;;;;;;1.95;1.58;;;20.10;42.30;;;;;;4999487;28;20033;-68
2022/03/28 06:13:30;;;;;;;1.70;1.60;;;20.10;42.30;;;;;;5002147;28;20033;-68
2022/03/28 06:15:55;;;;;;;1.60;1.50;;;20.10;42.30;;;;;;4999662;28;20046;-66
2022/03/28 06:18:21;;;;;;;2.13;1.50;;;20.10;42.40;;;;;;5002745;28;20046;-67
2022/03/28 06:20:47;;;;;;;2.78;1.90;;;20.20;42.50;;;;;;5017661;28;20045;-67
2022/03/28 06:23:12;;;;;;;2.55;1.70;;;20.20;42.60;;;;;;5000057;28;20030;-66
2022/03/28 06:25:38;;;;;;;2.47;1.83;;;20.20;42.70;;;;;;4992549;28;20056;-68
2022/03/28 06:28:04;;;;;;;5.28;2.05;;;20.20;42.90;;;;;;5007365;28;20044;-66
2022/03/28 06:30:30;;;;;;;2.30;2.10;;;20.20;43.00;;;;;;5001665;28;20068;-68
2022/03/28 06:32:56;;;;;;;3.17;2.13;;;20.20;43.00;;;;;;5017291;28;20108;-68
2022/03/28 06:35:21;;;;;;;3.75;1.98;;;20.20;43.10;;;;;;5001900;28;20041;-68
2022/03/28 06:37:52;;;;;;;2.30;2.10;;;20.20;43.20;;;;;;4999269;28;20041;-67
2022/03/28 06:40:17;;;;;;;2.70;2.47;;;20.20;43.20;;;;;;4999780;28;20148;-68
2022/03/28 06:42:43;;;;;;;2.22;2.08;;;20.20;43.40;;;;;;5000975;28;20038;-65
2022/03/28 06:45:10;;;;;;;2.85;1.98;;;20.20;43.50;;;;;;5001910;28;20543;-63
2022/03/28 06:47:36;;;;;;;3.45;2.15;;;20.20;43.50;;;;;;5001233;28;20139;-64
2022/03/28 06:50:02;;;;;;;4.05;1.98;;;20.20;43.50;;;;;;5003927;28;20125;-67
2022/03/28 06:52:28;;;;;;;5.78;2.28;;;20.30;43.60;;;;;;5001716;28;20064;-62
2022/03/28 06:54:53;;;;;;;4.32;2.08;;;20.30;43.60;;;;;;4997875;28;20761;-63
2022/03/28 06:57:20;;;;;;;5.60;2.33;;;20.30;43.50;;;;;;4984614;28;20037;-63
2022/03/28 06:59:46;;;;;;;4.93;1.88;;;20.30;43.50;;;;;;5001837;28;20076;-62
2022/03/28 07:02:11;;;;;;;3.80;2.33;;;20.30;43.50;;;;;;5002684;28;20093;-66
2022/03/28 07:04:37;;;;;;;7.40;2.25;;;20.30;43.50;;;;;;5001918;28;20549;-67
2022/03/28 07:07:03;;;;;;;6.90;2.80;;;20.30;43.50;;;;;;4996823;28;20995;-67
2022/03/28 07:09:29;;;;;;;6.50;2.45;;;20.30;43.70;;;;;;5014282;28;20274;-68
2022/03/28 07:11:55;;;;;;;3.28;2.20;;;20.30;43.70;;;;;;5016016;28;20046;-67
2022/03/28 07:14:20;;;;;;;7.72;2.45;;;20.30;44.00;;;;;;5001077;28;20177;-67
2022/03/28 07:16:46;;;;;;;3.75;2.70;;;20.30;44.00;;;;;;5001963;28;20580;-66
2022/03/28 07:19:13;;;;;;;5.65;2.78;;;20.40;44.00;;;;;;5009397;28;20311;-66
2022/03/28 07:21:39;;;;;;;3.97;2.50;;;20.40;44.00;;;;;;5000173;28;20044;-66
2022/03/28 07:24:05;;;;;;;4.22;2.45;;;20.40;43.90;;;;;;5001467;28;20752;-64
2022/03/28 07:26:30;;;;;;;7.65;3.67;;;20.40;43.90;;;;;;5001108;28;20038;-65
2022/03/28 07:29:00;;;;;;;16.52;7.45;;;20.40;44.00;;;;;;5001216;28;20104;-66
2022/03/28 07:31:25;;;;;;;11.85;6.78;;;20.40;44.00;;;;;;5001286;28;20053;-66
2022/03/28 07:33:51;;;;;;;18.45;8.73;;;20.40;44.20;;;;;;5000858;28;20045;-67
2022/03/28 07:36:19;;;;;;;20.02;10.27;;;20.40;44.40;;;;;;5014914;28;20026;-66
2022/03/28 07:38:44;;;;;;;19.00;9.82;;;20.40;44.40;;;;;;4994487;28;20058;-65
2022/03/28 07:41:10;;;;;;;22.58;10.02;;;20.40;44.50;;;;;;4989940;28;20051;-67
2022/03/28 07:43:35;;;;;;;19.65;8.93;;;20.40;44.50;;;;;;4971957;28;20738;-66
2022/03/28 07:46:01;;;;;;;20.05;9.32;;;20.40;44.50;;;;;;4971447;28;20517;-66
2022/03/28 07:48:27;;;;;;;24.95;11.77;;;20.40;44.50;;;;;;4990052;28;20061;-67
2022/03/28 07:50:52;;;;;;;24.77;9.32;;;20.40;44.60;;;;;;4989036;28;20042;-67
2022/03/28 07:53:18;;;;;;;22.70;10.23;;;20.40;44.70;;;;;;4986210;28;20050;-67
2022/03/28 07:55:45;;;;;;;22.15;9.98;;;20.40;44.80;;;;;;4971424;28;20048;-66
2022/03/28 07:58:10;;;;;;;26.48;10.38;;;20.40;44.80;;;;;;4989128;28;20410;-67
2022/03/28 08:00:37;;;;;;;23.00;10.32;;;20.40;44.80;;;;;;4990635;28;20042;-65
2022/03/28 08:03:04;;;;;;;26.00;10.52;;;20.50;45.00;;;;;;4990013;28;20782;-64
2022/03/28 08:05:30;;;;;;;28.52;11.55;;;20.50;45.10;;;;;;4988449;28;20463;-65
2022/03/28 08:07:55;;;;;;;32.17;11.38;;;20.50;45.20;;;;;;4989023;28;20049;-66
2022/03/28 08:10:22;;;;;;;32.58;12.35;;;20.50;45.40;;;;;;4988831;28;20104;-66
2022/03/28 08:12:50;;;;;;;25.42;11.10;;;20.50;45.40;;;;;;4984275;28;20045;-66
2022/03/28 08:15:17;;;;;;;26.30;10.82;;;20.50;46.20;;;;;;4985018;28;20045;-66
2022/03/28 08:17:43;;;;;;;27.55;10.90;;;20.50;45.40;;;;;;4987385;28;20042;-66
2022/03/28 08:20:11;;;;;;;18.25;9.13;;;20.50;45.40;;;;;;4987594;28;20042;-67
2022/03/28 08:22:46;;;;;;;20.70;9.07;;;20.50;45.50;;;;;;4956798;28;20053;-67
2022/03/28 08:25:13;;;;;;;20.85;9.60;;;20.50;45.60;;;;;;4988122;28;20045;-67
2022/03/28 08:27:38;;;;;;;19.77;8.80;;;20.50;45.90;;;;;;4973160;28;20831;-67
2022/03/28 08:30:05;;;;;;;25.45;9.13;;;20.50;45.90;;;;;;4970556;28;20046;-66
2022/03/28 08:32:30;;;;;;;20.85;8.35;;;20.50;45.80;;;;;;4969982;28;20042;-66
2022/03/28 08:34:56;;;;;;;18.85;7.68;;;20.60;46.00;;;;;;4988081;28;20065;-66
2022/03/28 08:37:21;;;;;;;18.40;7.35;;;20.50;45.90;;;;;;4985409;28;20050;-66
2022/03/28 08:39:54;;;;;;;17.23;7.75;;;20.50;45.90;;;;;;4996153;28;20822;-66
2022/03/28 08:42:21;;;;;;;17.95;7.63;;;20.60;45.90;;;;;;4999963;28;20081;-66
2022/03/28 08:44:47;;;;;;;14.75;6.93;;;20.60;46.00;;;;;;4999214;28;20041;-66
2022/03/28 08:47:17;;;;;;;15.65;7.45;;;20.60;45.90;;;;;;4980549;28;20049;-67
2022/03/28 08:49:43;;;;;;;22.15;6.38;;;20.60;45.90;;;;;;4999008;28;20033;-68
2022/03/28 08:52:08;;;;;;;18.58;6.85;;;20.60;46.00;;;;;;4987283;28;20042;-68
2022/03/28 08:54:34;;;;;;;15.77;6.22;;;20.60;45.90;;;;;;5002617;28;20050;-67
2022/03/28 08:57:00;;;;;;;15.00;6.78;;;20.60;45.70;;;;;;4986352;28;20053;-68
2022/03/28 08:59:26;;;;;;;11.88;5.45;;;20.60;45.30;;;;;;4986772;28;20502;-65
2022/03/28 09:01:52;;;;;;;17.35;8.38;;;20.60;45.30;;;;;;5003230;28;20046;-65
2022/03/28 09:04:17;;;;;;;28.50;13.63;;;20.60;45.30;;;;;;4986547;28;20156;-66
2022/03/28 09:06:44;;;;;;;34.30;15.07;;;20.60;45.30;;;;;;5004592;28;20037;-68
2022/03/28 09:09:18;;;;;;;29.00;14.80;;;20.60;45.30;;;;;;5004382;28;20513;-68
2022/03/28 09:11:53;;;;;;;32.42;14.80;;;20.60;45.30;;;;;;5004662;28;20049;-66
2022/03/28 09:14:29;;;;;;;27.67;13.75;;;20.60;45.30;;;;;;4985127;28;20048;-65
2022/03/28 09:17:02;;;;;;;26.67;12.65;;;20.60;45.60;;;;;;4996275;28;20033;-62
2022/03/28 09:19:42;;;;;;;23.63;11.90;;;20.60;45.50;;;;;;5003548;28;20041;-64
2022/03/28 09:22:13;;;;;;;31.85;12.55;;;20.70;45.50;;;;;;5004569;28;20132;-65
2022/03/28 09:24:38;;;;;;;;;;;20.60;46.20;;;;;;5003891;28;20049;-65
2022/03/28 09:27:14;;;;;;;23.08;11.65;;;20.60;45.60;;;;;;5003587;28;19925;-67
2022/03/28 09:30:04;;;;;;;23.65;10.75;;;20.60;45.60;;;;;;4985607;28;20042;-67
2022/03/28 09:32:31;;;;;;;22.77;10.57;;;20.60;45.50;;;;;;5003715;28;20433;-67
2022/03/28 09:35:07;;;;;;;17.58;9.70;;;20.60;45.50;;;;;;4999815;28;20573;-67
2022/03/28 09:38:04;;;;;;;19.35;9.70;;;20.60;45.40;;;;;;5002888;28;20417;-67
2022/03/28 09:40:29;;;;;;;18.73;9.43;;;20.60;45.30;;;;;;5001258;28;20050;-67
2022/03/28 09:42:56;;;;;;;17.40;9.02;;;20.60;45.10;;;;;;5002306;28;20131;-67
2022/03/28 09:45:25;;;;;;;14.75;7.43;;;20.60;45.00;;;;;;5000262;28;20037;-67
2022/03/28 09:48:02;;;;;;;15.55;8.68;;;20.60;45.00;;;;;;5002561;28;20557;-67
2022/03/28 09:50:34;;;;;;;14.43;8.02;;;20.60;44.80;;;;;;4985698;28;20050;-67
2022/03/28 09:53:14;;;;;;;15.88;7.78;;;20.60;44.80;;;;;;4980061;28;20045;-67
2022/03/28 09:55:52;;;;;;;13.93;6.80;;;20.60;44.70;;;;;;5000676;28;20046;-67
2022/03/28 09:58:35;;;;;;;16.23;7.03;;;20.60;44.60;;;;;;5003761;28;20077;-65
2022/03/28 10:01:04;;;;;;;17.77;7.65;;;20.60;44.60;;;;;;4983369;28;20052;-68
2022/03/28 10:03:33;;;;;;;9.40;6.07;;;20.60;44.60;;;;;;4985923;28;20099;-68
2022/03/28 10:06:05;;;;;;;10.82;5.97;;;20.60;44.60;;;;;;4985190;28;20034;-68
2022/03/28 10:08:32;;;;;;;12.85;6.82;;;20.60;44.50;;;;;;4985745;28;20045;-68
2022/03/28 10:10:59;;;;;;;13.23;6.18;;;20.60;44.60;;;;;;4983137;28;21695;-67
2022/03/28 10:13:26;;;;;;;12.88;5.65;;;20.60;44.60;;;;;;4983288;28;20045;-67
2022/03/28 10:15:53;;;;;;;14.15;6.57;;;20.60;44.60;;;;;;5001151;28;20053;-68
2022/03/28 10:18:19;;;;;;;11.43;5.53;;;20.60;44.50;;;;;;4985945;28;20453;-68
2022/03/28 10:20:53;;;;;;;8.65;5.15;;;20.60;44.50;;;;;;5001859;28;20046;-68
2022/03/28 10:23:20;;;;;;;12.52;5.85;;;20.60;45.20;;;;;;5001344;28;20493;-68
2022/03/28 10:25:46;;;;;;;11.65;5.43;;;20.60;44.40;;;;;;4978565;28;20440;-68
2022/03/28 10:28:12;;;;;;;10.82;5.45;;;20.60;44.40;;;;;;5002205;28;20057;-68
2022/03/28 10:30:40;;;;;;;11.25;5.40;;;20.60;44.40;;;;;;4977345;28;20561;-68
2022/03/28 10:33:19;;;;;;;10.77;4.95;;;20.60;44.40;;;;;;5002379;28;20046;-68
2022/03/28 10:36:00;;;;;;;7.85;5.05;;;20.60;44.40;;;;;;4974913;28;20050;-68
2022/03/28 10:38:26;;;;;;;7.85;5.00;;;20.60;44.30;;;;;;5001509;28;20134;-68
2022/03/28 10:41:03;;;;;;;11.38;5.38;;;20.60;44.40;;;;;;5000152;28;20473;-67
2022/03/28 10:43:34;;;;;;;10.30;5.00;;;20.60;44.40;;;;;;5016857;28;20141;-67
2022/03/28 10:46:00;;;;;;;11.57;4.90;;;20.60;44.50;;;;;;5003006;28;20981;-67
2022/03/28 10:48:42;;;;;;;10.18;5.00;;;20.60;44.50;;;;;;5000783;28;20046;-66
2022/03/28 10:51:10;;;;;;;13.73;5.30;;;20.60;44.70;;;;;;5000198;28;20048;-66
2022/03/28 10:53:40;;;;;;;13.35;5.03;;;20.60;44.70;;;;;;5017851;28;20072;-67
2022/03/28 10:56:27;;;;;;;8.73;4.30;;;20.60;44.80;;;;;;5000333;28;20489;-66
2022/03/28 10:58:54;;;;;;;9.13;4.97;;;20.60;44.80;;;;;;5002327;28;20038;-66
2022/03/28 11:01:37;;;;;;;8.82;4.50;;;20.60;44.80;;;;;;5002319;28;20046;-66
2022/03/28 11:04:03;;;;;;;10.52;4.63;;;20.60;44.70;;;;;;5002827;28;20072;-66
2022/03/28 11:06:45;;;;;;;10.20;4.47;;;20.60;44.70;;;;;;5000055;28;20061;-67
2022/03/28 11:09:11;;;;;;;8.20;4.15;;;20.60;44.60;;;;;;5001480;28;20042;-67
2022/03/28 11:11:55;;;;;;;10.25;4.47;;;20.60;44.60;;;;;;4999515;28;20041;-67
2022/03/28 11:14:38;;;;;;;8.30;4.25;;;20.60;44.50;;;;;;5002308;28;20065;-67
2022/03/28 11:17:17;;;;;;;7.00;4.30;;;20.60;44.50;;;;;;4996910;28;20068;-69
2022/03/28 11:19:58;;;;;;;5.53;3.60;;;20.60;44.60;;;;;;4994887;28;20044;-67
2022/03/28 11:22:50;;;;;;;7.25;3.58;;;20.60;44.50;;;;;;4999066;28;20112;-67
2022/03/28 11:25:29;;;;;;;6.78;3.92;;;20.60;44.50;;;;;;5015164;28;20092;-68
2022/03/28 11:28:21;;;;;;;15.02;4.75;;;20.60;44.50;;;;;;5015605;28;20532;-67
2022/03/28 11:30:55;;;;;;;9.45;3.75;;;20.60;44.50;;;;;;4979432;28;20050;-67
2022/03/28 11:33:35;;;;;;;7.57;3.65;;;20.60;44.60;;;;;;4992035;28;20045;-69
2022/03/28 11:36:13;;;;;;;8.30;3.33;;;20.60;44.50;;;;;;4988244;28;20045;-67
2022/03/28 11:38:54;;;;;;;9.35;3.75;;;20.60;44.60;;;;;;5013659;28;20054;-66
2022/03/28 11:41:20;;;;;;;;;;;20.60;45.00;;;;;;5014303;28;20053;-67
2022/03/28 11:43:47;;;;;;;6.93;3.38;;;20.60;45.00;;;;;;5000870;28;19925;-67
2022/03/28 11:46:17;;;;;;;6.55;3.17;;;20.60;44.90;;;;;;5000099;28;20042;-67
2022/03/28 11:49:21;;;;;;;8.07;3.67;;;20.60;44.90;;;;;;5014908;28;20076;-66
2022/03/28 11:51:48;;;;;;;7.07;3.35;;;20.60;44.80;;;;;;4921950;29;20051;-67
2022/03/28 11:54:17;;;;;;;6.95;3.38;;;20.60;44.90;;;;;;4910345;29;20114;-67
2022/03/28 11:59:30;;;;;;;6.43;3.45;;;20.60;44.80;;;;;;5000170;28;20050;-66
2022/03/28 12:02:00;;;;;;;6.13;3.30;;;20.60;44.70;;;;;;4992556;28;20045;-67
2022/03/28 12:04:26;;;;;;;6.45;3.13;;;20.60;44.70;;;;;;4996056;28;20042;-67
2022/03/28 12:06:52;;;;;;;5.10;3.13;;;20.60;44.70;;;;;;5001034;28;20111;-67
2022/03/28 12:09:20;;;;;;;8.52;3.38;;;20.60;44.70;;;;;;4993232;28;20049;-67
2022/03/28 12:11:59;;;;;;;10.30;3.42;;;20.60;44.70;;;;;;5000168;28;20091;-67
2022/03/28 12:14:25;;;;;;;5.97;2.83;;;20.60;44.60;;;;;;5015938;28;20052;-67
2022/03/28 12:16:52;;;;;;;5.00;2.97;;;20.60;44.60;;;;;;5001893;28;20493;-67
2022/03/28 12:19:22;;;;;;;4.63;3.15;;;20.60;44.60;;;;;;4996436;28;20038;-67
2022/03/28 12:21:50;;;;;;;5.43;3.15;;;20.60;44.50;;;;;;4992747;28;20072;-67
2022/03/28 12:24:16;;;;;;;6.18;2.90;;;20.60;44.50;;;;;;5015375;28;20389;-67
2022/03/28 12:26:46;;;;;;;4.85;2.75;;;20.60;44.50;;;;;;4999673;28;20048;-67
2022/03/28 12:29:12;;;;;;;5.67;2.80;;;20.60;44.50;;;;;;5005325;28;20096;-67
2022/03/28 12:31:41;;;;;;;3.42;2.70;;;20.60;44.40;;;;;;5000394;28;20046;-67
2022/03/28 12:34:08;;;;;;;6.85;3.17;;;20.60;44.40;;;;;;5003249;28;20049;-67
2022/03/28 12:36:35;;;;;;;5.40;2.95;;;20.60;44.40;;;;;;5020110;28;20139;-67
2022/03/28 12:39:06;;;;;;;5.05;2.80;;;20.60;44.50;;;;;;5005383;28;20107;-67
2022/03/28 12:41:42;;;;;;;4.78;2.90;;;20.60;44.40;;;;;;4987092;28;20045;-67
2022/03/28 12:44:17;;;;;;;4.38;2.50;;;20.60;44.30;;;;;;5003236;28;20045;-67
2022/03/28 12:46:44;;;;;;;2.92;2.63;;;20.60;44.30;;;;;;4985328;28;20049;-67
2022/03/28 12:49:14;;;;;;;3.95;2.53;;;20.60;44.30;;;;;;5002423;28;20046;-67